Time;durP1;ratioP1;P1;durP2;ratioP2;P2;SDS_P1;SDS_P2;PMS_P1;PMS_P2;Temp;Humidity;BMP_temperature;BMP_pressure;BME280_temperature;BME280_humidity;BME280_pressure;Samples;Min_cycle;Max_cycle;Signal;HPM_P1;HPM_P2
2023/06/25 05:40:26;;;;;;;3.50;2.55;;;;;;;;;;6233080;22;20081;-89
2023/06/25 05:42:54;;;;;;;3.20;2.63;;;;;;;;;;6306812;22;20007;-84
2023/06/25 05:45:19;;;;;;;5.25;2.97;;;;;;;;;;6307637;22;20000;-88
2023/06/25 05:47:45;;;;;;;5.03;3.20;;;;;;;;;;6280695;22;20083;-88
2023/06/25 05:50:10;;;;;;;3.50;3.00;;;;;;;;;;6280701;22;19999;-87
2023/06/25 05:52:35;;;;;;;3.55;3.00;;;;;;;;;;6308457;22;20556;-87
2023/06/25 05:55:01;;;;;;;4.63;2.85;;;;;;;;;;6310995;22;20041;-87
2023/06/25 05:57:26;;;;;;;3.58;2.80;;;;;;;;;;6309146;22;20414;-86
2023/06/25 05:59:52;;;;;;;3.47;2.63;;;;;;;;;;6282658;22;20064;-86
2023/06/25 06:02:17;;;;;;;3.28;2.97;;;;;;;;;;6311564;22;20007;-87
2023/06/25 06:04:43;;;;;;;3.97;2.80;;;;;;;;;;6316364;22;20014;-85
2023/06/25 06:07:08;;;;;;;3.95;3.20;;;;;;;;;;6312164;22;20014;-90
2023/06/25 06:09:34;;;;;;;4.65;2.67;;;;;;;;;;6311374;22;20006;-86
2023/06/25 06:11:59;;;;;;;5.07;2.90;;;;;;;;;;6310147;22;20003;-83
2023/06/25 06:14:25;;;;;;;3.70;2.90;;;;;;;;;;6309640;22;20007;-86
2023/06/25 06:16:50;;;;;;;3.85;2.30;;;;;;;;;;6309551;22;20422;-86
2023/06/25 06:19:16;;;;;;;3.50;2.53;;;;;;;;;;6282361;22;20029;-86
2023/06/25 06:21:41;;;;;;;3.03;2.70;;;;;;;;;;6282433;22;20425;-84
2023/06/25 06:24:07;;;;;;;3.97;2.80;;;;;;;;;;6309445;22;20031;-81
2023/06/25 06:26:35;;;;;;;3.22;2.92;;;;;;;;;;6309943;22;20084;-82
2023/06/25 06:29:03;;;;;;;5.80;2.65;;;;;;;;;;6309840;22;20003;-81
2023/06/25 06:31:30;;;;;;;3.03;2.55;;;;;;;;;;6310278;22;20326;-86
2023/06/25 06:33:56;;;;;;;3.20;2.67;;;;;;;;;;6309603;22;20003;-83
2023/06/25 06:36:21;;;;;;;3.60;2.40;;;;;;;;;;6309519;22;20448;-83
2023/06/25 06:38:47;;;;;;;3.80;2.00;;;;;;;;;;6310021;22;20315;-82
2023/06/25 06:41:13;;;;;;;4.82;2.70;;;;;;;;;;6282230;22;20011;-83
2023/06/25 18:09:02;;;;;;;5.57;3.90;;;;;;;;;;6281855;22;20085;-83
2023/06/25 18:11:29;;;;;;;5.47;3.92;;;;;;;;;;6308516;22;20307;-85
2023/06/25 18:13:55;;;;;;;4.18;3.72;;;;;;;;;;6309689;22;20164;-87
2023/06/25 18:16:21;;;;;;;4.50;3.67;;;;;;;;;;6309631;22;20086;-81
2023/06/25 18:18:47;;;;;;;7.65;5.15;;;;;;;;;;6309816;22;20086;-82
2023/06/25 18:21:14;;;;;;;7.35;5.50;;;;;;;;;;6309794;22;20029;-81
2023/06/25 18:23:40;;;;;;;4.43;3.38;;;;;;;;;;6309695;22;20038;-82
2023/06/25 18:26:06;;;;;;;3.40;3.10;;;;;;;;;;6282642;22;20017;-82
2023/06/25 18:28:32;;;;;;;4.30;3.15;;;;;;;;;;6309660;22;20038;-79
2023/06/25 18:31:01;;;;;;;3.90;3.50;;;;;;;;;;6309796;22;20003;-85
2023/06/25 18:33:27;;;;;;;;;;;;;;;;;;6309660;22;20007;-85
2023/06/25 18:35:52;;;;;;;4.93;4.25;;;;;;;;;;6309222;22;19913;-86
2023/06/25 18:38:18;;;;;;;3.88;3.47;;;;;;;;;;6309419;22;20011;-85
2023/06/25 18:40:43;;;;;;;5.10;3.83;;;;;;;;;;6282099;22;20053;-87
2023/06/25 18:43:09;;;;;;;4.80;4.30;;;;;;;;;;6309203;22;20015;-89
2023/06/25 18:45:35;;;;;;;3.42;3.13;;;;;;;;;;6281726;22;20311;-86
2023/06/25 18:48:00;;;;;;;6.07;5.07;;;;;;;;;;6309633;22;20000;-86
2023/06/25 18:50:26;;;;;;;3.70;3.33;;;;;;;;;;6309372;22;20003;-86
2023/06/25 18:52:52;;;;;;;5.40;4.10;;;;;;;;;;6309372;22;20078;-85
2023/06/25 18:55:18;;;;;;;7.90;7.10;;;;;;;;;;6310076;22;20000;-86
2023/06/25 18:57:43;;;;;;;6.78;5.05;;;;;;;;;;6309240;22;20057;-84
2023/06/25 19:00:10;;;;;;;7.43;4.47;;;;;;;;;;6309493;22;20320;-83
2023/06/25 19:02:35;;;;;;;4.65;3.67;;;;;;;;;;6309201;22;20006;-83
2023/06/25 19:05:01;;;;;;;6.38;5.07;;;;;;;;;;6309053;22;20007;-84
2023/06/25 19:07:27;;;;;;;7.63;5.45;;;;;;;;;;6309098;22;20413;-84
2023/06/25 19:09:53;;;;;;;4.28;3.85;;;;;;;;;;6309424;22;20397;-83
2023/06/25 19:12:19;;;;;;;5.43;3.42;;;;;;;;;;6309182;22;20003;-81
2023/06/25 19:14:44;;;;;;;4.97;3.55;;;;;;;;;;6309344;22;20426;-80
2023/06/25 19:17:10;;;;;;;3.45;3.03;;;;;;;;;;6309070;22;20046;-81
2023/06/25 19:19:37;;;;;;;3.75;3.40;;;;;;;;;;6309078;22;20010;-80
2023/06/25 20:11:10;;;;;;;4.45;3.55;;;;;;;;;;6280155;22;20074;-81
2023/06/25 20:13:35;;;;;;;4.97;3.05;;;;;;;;;;6307519;22;20011;-83
2023/06/25 20:16:00;;;;;;;4.55;3.65;;;;;;;;;;6280730;22;20003;-83
2023/06/25 20:18:26;;;;;;;4.90;3.40;;;;;;;;;;6308359;22;19995;-84
2023/06/25 20:20:51;;;;;;;4.30;3.25;;;;;;;;;;6308330;22;20011;-83
2023/06/25 20:23:18;;;;;;;3.85;3.35;;;;;;;;;;6280903;22;20013;-80
2023/06/25 20:25:43;;;;;;;6.20;3.67;;;;;;;;;;6308087;22;20085;-82
2023/06/25 20:28:09;;;;;;;4.13;3.58;;;;;;;;;;6308673;22;20362;-82
2023/06/25 20:30:34;;;;;;;4.45;3.38;;;;;;;;;;6308151;22;20331;-82
2023/06/25 20:33:04;;;;;;;4.38;3.47;;;;;;;;;;6308121;22;20410;-82
2023/06/25 20:35:29;;;;;;;4.25;3.53;;;;;;;;;;6308146;22;19999;-82
2023/06/25 20:37:55;;;;;;;3.70;2.92;;;;;;;;;;6308342;22;20006;-80
2023/06/25 20:40:20;;;;;;;3.95;3.50;;;;;;;;;;6308243;22;20007;-80
2023/06/25 20:42:46;;;;;;;7.57;6.78;;;;;;;;;;6308016;22;20334;-80
2023/06/25 20:45:11;;;;;;;9.82;8.25;;;;;;;;;;6307993;22;20089;-80
2023/06/25 20:47:41;;;;;;;6.63;4.32;;;;;;;;;;6307950;22;20325;-84
2023/06/25 20:50:08;;;;;;;7.20;3.55;;;;;;;;;;6308204;22;20041;-80
2023/06/25 20:52:33;;;;;;;3.50;3.08;;;;;;;;;;6307839;22;20327;-82
2023/06/25 20:55:02;;;;;;;3.78;3.22;;;;;;;;;;6308604;22;19995;-80
2023/06/25 20:57:27;;;;;;;5.10;3.30;;;;;;;;;;6307972;22;20003;-79
2023/06/25 20:59:53;;;;;;;4.72;2.85;;;;;;;;;;6308335;22;20006;-80
2023/06/25 21:02:18;;;;;;;3.70;3.40;;;;;;;;;;6308078;22;19999;-81
2023/06/25 21:04:44;;;;;;;4.05;3.67;;;;;;;;;;6308067;22;20003;-79
2023/06/25 21:07:09;;;;;;;3.58;3.28;;;;;;;;;;6308093;22;20075;-79
2023/06/25 21:09:35;;;;;;;3.58;3.20;;;;;;;;;;6307662;22;20079;-79
2023/06/25 21:12:00;;;;;;;3.65;3.35;;;;;;;;;;6308111;22;20003;-80
2023/06/25 21:14:26;;;;;;;3.50;3.17;;;;;;;;;;6308024;22;20010;-80
2023/06/25 21:16:51;;;;;;;3.78;3.33;;;;;;;;;;6308049;22;20423;-80
2023/06/25 21:19:16;;;;;;;5.78;3.20;;;;;;;;;;6308160;22;19999;-80
2023/06/25 21:21:42;;;;;;;4.60;3.35;;;;;;;;;;6308429;22;20091;-80
2023/06/25 21:24:07;;;;;;;3.70;3.38;;;;;;;;;;6308037;22;20372;-80
2023/06/25 21:26:33;;;;;;;5.25;4.72;;;;;;;;;;6308350;22;20074;-84
2023/06/25 21:28:59;;;;;;;11.10;9.90;;;;;;;;;;6307798;22;20000;-80
2023/06/25 21:31:24;;;;;;;4.85;4.35;;;;;;;;;;6307783;22;20304;-80
